Terminal Aerodrome Forecast
Issued by NWS Lake Charles, LA

Home | Current Version | Previous Version | Text Only | Print | Product List | Glossary On
Versions: 1 2 3 4 5 6 7 8 9 10 11 12 13
000
FTUS44 KLCH 122300
TAFBPT
TAF
KBPT 122339Z 1300/1324 23008KT P6SM VCTS SCT050CB OVC250
      TEMPO 1300/1302 VRB20G30KT 1SM TSRA BKN025CB
     FM130300 VRB05KT P6SM OVC250
     FM131800 VRB06KT P6SM SCT050=

USA.gov is the U.S. government's official web portal to all federal, state and local government web resources and services.